createdAt,value
2023-05-14T00:01:58.586Z,4.22
2023-05-14T00:04:26.075Z,3.60
2023-05-14T00:06:53.480Z,5.03
2023-05-14T00:09:20.973Z,4.78
2023-05-14T00:11:48.414Z,2.95
2023-05-14T00:14:15.846Z,5.47
2023-05-14T00:16:43.257Z,5.03
2023-05-14T00:19:11.283Z,3.88
2023-05-14T00:21:38.805Z,3.42
2023-05-14T00:24:06.461Z,7.68
2023-05-14T00:26:33.911Z,3.35
2023-05-14T00:29:01.466Z,3.70
2023-05-14T00:31:28.881Z,2.78
2023-05-14T00:33:56.488Z,3.10
2023-05-14T00:36:23.955Z,3.38
2023-05-14T00:38:51.605Z,2.78
2023-05-14T00:41:19.072Z,2.97
2023-05-14T00:43:46.518Z,3.63
2023-05-14T00:46:14.987Z,3.38
2023-05-14T00:48:42.510Z,3.22
2023-05-14T00:51:10.085Z,4.75
2023-05-14T00:53:37.768Z,3.08
2023-05-14T00:56:05.846Z,3.13
2023-05-14T00:58:33.273Z,3.88
2023-05-14T01:01:01.069Z,1.85
2023-05-14T01:03:30.742Z,3.63
2023-05-14T01:06:35.762Z,6.78
2023-05-14T01:09:12.537Z,3.88
2023-05-14T01:12:00.954Z,2.38
2023-05-14T01:15:02.110Z,3.25
2023-05-14T01:17:32.874Z,3.30
2023-05-14T01:20:00.794Z,5.05
2023-05-14T01:22:28.252Z,3.15
2023-05-14T01:24:55.966Z,5.45
2023-05-14T01:27:36.069Z,2.70
2023-05-14T01:30:15.220Z,3.40
2023-05-14T01:32:47.250Z,3.13
2023-05-14T01:35:15.464Z,8.75
2023-05-14T01:37:44.645Z,2.80
2023-05-14T01:40:14.404Z,2.80
2023-05-14T01:42:43.313Z,4.80
2023-05-14T01:45:11.078Z,3.00
2023-05-14T01:47:38.576Z,5.80
2023-05-14T01:50:06.532Z,4.03
2023-05-14T01:52:34.840Z,4.45
2023-05-14T01:55:02.320Z,3.25
2023-05-14T01:57:29.755Z,2.38
2023-05-14T01:59:57.393Z,3.05
2023-05-14T02:02:24.810Z,2.50
2023-05-14T02:04:53.303Z,3.63
2023-05-14T02:07:20.722Z,2.90
2023-05-14T02:09:48.141Z,3.80
2023-05-14T02:12:15.680Z,6.03
2023-05-14T02:14:43.230Z,3.92
2023-05-14T02:17:10.590Z,2.47
2023-05-14T02:19:38.126Z,4.35
2023-05-14T02:22:05.683Z,3.65
2023-05-14T02:24:34.169Z,2.50
2023-05-14T02:27:01.704Z,4.32
2023-05-14T02:29:29.150Z,2.70
2023-05-14T02:31:56.985Z,2.30
2023-05-14T02:34:25.516Z,2.20
2023-05-14T02:36:52.971Z,3.17
2023-05-14T02:39:20.486Z,2.60
2023-05-14T02:41:47.973Z,2.85
2023-05-14T02:44:15.488Z,3.10
2023-05-14T02:46:43.444Z,3.33
2023-05-14T02:49:11.000Z,3.55
2023-05-14T02:51:38.485Z,4.13
2023-05-14T02:54:06.138Z,4.80
2023-05-14T02:56:33.558Z,7.00
2023-05-14T02:59:01.054Z,2.97
2023-05-14T03:01:29.180Z,3.30
2023-05-14T03:03:57.178Z,3.05
2023-05-14T03:06:24.626Z,3.58
2023-05-14T03:08:52.048Z,2.35
2023-05-14T03:11:19.508Z,3.92
2023-05-14T03:13:46.923Z,2.90
2023-05-14T03:16:14.408Z,4.00
2023-05-14T03:18:41.902Z,8.25
2023-05-14T03:21:09.929Z,3.00
2023-05-14T03:23:37.494Z,4.90
2023-05-14T03:26:05.129Z,3.00
2023-05-14T03:28:32.633Z,3.78
2023-05-14T03:31:01.021Z,3.30
2023-05-14T03:33:28.953Z,4.00
2023-05-14T03:35:56.355Z,2.20
2023-05-14T03:38:23.792Z,2.63
2023-05-14T03:40:51.358Z,2.97
2023-05-14T03:43:18.747Z,2.95
2023-05-14T03:45:46.970Z,3.17
2023-05-14T03:48:17.509Z,2.47
2023-05-14T03:50:45.637Z,2.40
2023-05-14T03:53:13.371Z,4.70
2023-05-14T03:55:40.837Z,4.32
2023-05-14T03:58:14.221Z,8.68
2023-05-14T04:00:43.105Z,3.80
2023-05-14T04:03:12.051Z,5.40
2023-05-14T04:05:39.561Z,5.75
2023-05-14T04:08:07.288Z,3.80
2023-05-14T04:10:34.794Z,6.72
2023-05-14T04:13:02.231Z,5.05
2023-05-14T04:15:33.333Z,5.40
2023-05-14T04:18:00.793Z,4.72
2023-05-14T04:20:28.356Z,5.70
2023-05-14T04:22:56.328Z,3.15
2023-05-14T04:25:24.138Z,3.95
2023-05-14T04:27:51.573Z,5.72
2023-05-14T04:30:19.135Z,2.20
2023-05-14T04:32:46.699Z,3.97
2023-05-14T04:35:14.146Z,6.32
2023-05-14T04:37:41.710Z,2.92
2023-05-14T04:40:11.334Z,4.63
2023-05-14T04:42:39.473Z,5.25
2023-05-14T04:45:07.316Z,2.35
2023-05-14T04:47:34.942Z,3.78
2023-05-14T04:50:02.613Z,5.40
2023-05-14T04:52:30.035Z,3.92
2023-05-14T04:54:57.458Z,4.57
2023-05-14T04:57:24.877Z,4.60
2023-05-14T04:59:52.343Z,5.28
2023-05-14T05:02:19.868Z,3.15
2023-05-14T05:04:47.383Z,3.35
2023-05-14T05:07:14.851Z,4.72
2023-05-14T05:09:44.027Z,4.18
2023-05-14T05:12:11.528Z,7.63
2023-05-14T05:14:38.886Z,3.78
2023-05-14T05:17:06.367Z,3.25
2023-05-14T05:19:42.908Z,3.10
2023-05-14T05:22:11.991Z,3.10
2023-05-14T05:24:39.727Z,5.07
2023-05-14T05:27:07.160Z,2.60
2023-05-14T05:29:35.381Z,3.40
2023-05-14T05:32:02.975Z,5.72
2023-05-14T05:34:30.512Z,4.75
2023-05-14T05:36:58.035Z,4.55
2023-05-14T05:39:25.542Z,2.80
2023-05-14T05:41:54.397Z,4.43
2023-05-14T05:44:21.880Z,4.80
2023-05-14T05:46:50.958Z,3.95
2023-05-14T05:49:18.580Z,3.33
2023-05-14T05:51:45.968Z,5.55
2023-05-14T05:54:13.405Z,3.05
2023-05-14T05:56:41.003Z,3.58
2023-05-14T05:59:08.502Z,4.40
2023-05-14T06:01:36.234Z,5.15
2023-05-14T06:04:05.712Z,4.00
2023-05-14T06:06:33.276Z,4.40
2023-05-14T06:09:02.005Z,4.50
2023-05-14T06:11:29.500Z,6.22
2023-05-14T06:13:57.190Z,4.15
2023-05-14T06:16:24.989Z,6.90
2023-05-14T06:18:53.090Z,8.52
2023-05-14T06:21:20.799Z,7.47
2023-05-14T06:23:48.266Z,5.13
2023-05-14T06:26:15.769Z,6.30
2023-05-14T06:28:43.279Z,4.85
2023-05-14T06:31:10.835Z,4.88
2023-05-14T06:33:38.360Z,5.00
2023-05-14T06:36:07.673Z,5.55
2023-05-14T06:38:35.216Z,5.10
2023-05-14T06:41:02.757Z,4.80
2023-05-14T06:43:30.225Z,5.95
2023-05-14T06:45:57.669Z,9.48
2023-05-14T06:48:27.723Z,4.97
2023-05-14T06:50:55.884Z,7.15
2023-05-14T06:53:23.435Z,7.22
2023-05-14T06:55:50.915Z,7.32
2023-05-14T06:58:18.373Z,10.40
2023-05-14T07:00:46.033Z,8.07
2023-05-14T07:03:13.468Z,7.35
2023-05-14T07:05:41.326Z,6.50
2023-05-14T07:08:08.826Z,6.97
2023-05-14T07:10:36.382Z,5.55
2023-05-14T07:13:03.785Z,5.95
2023-05-14T07:15:31.292Z,5.10
2023-05-14T07:17:58.783Z,5.78
2023-05-14T07:20:26.500Z,4.88
2023-05-14T07:22:54.063Z,5.28
2023-05-14T07:25:21.528Z,5.00
2023-05-14T07:27:49.225Z,7.72
2023-05-14T07:30:16.716Z,7.43
2023-05-14T07:32:44.586Z,5.75
2023-05-14T07:35:12.090Z,6.05
2023-05-14T07:37:39.564Z,5.20
2023-05-14T07:40:07.687Z,6.18
2023-05-14T07:42:37.040Z,6.05
2023-05-14T07:45:05.971Z,6.00
2023-05-14T07:47:33.531Z,5.05
2023-05-14T07:50:01.025Z,5.70
2023-05-14T07:52:28.545Z,8.48
2023-05-14T07:54:56.025Z,6.45
2023-05-14T07:57:23.507Z,4.80
2023-05-14T07:59:50.996Z,6.07
2023-05-14T08:02:18.494Z,6.13
2023-05-14T08:04:46.038Z,6.75
2023-05-14T08:07:13.648Z,4.97
2023-05-14T08:09:41.105Z,5.35
2023-05-14T08:12:08.713Z,4.78
2023-05-14T08:14:36.162Z,5.05
2023-05-14T08:17:03.929Z,3.53
2023-05-14T08:19:31.473Z,5.10
2023-05-14T08:21:58.905Z,3.90
2023-05-14T08:24:26.348Z,8.20
2023-05-14T08:26:53.776Z,5.32
2023-05-14T08:29:21.542Z,3.92
2023-05-14T08:31:50.200Z,7.82
2023-05-14T08:34:18.072Z,6.53
2023-05-14T08:36:45.553Z,6.15
2023-05-14T08:39:12.942Z,4.13
2023-05-14T08:41:41.206Z,7.35
2023-05-14T08:44:18.733Z,5.25
2023-05-14T08:46:46.790Z,4.85
2023-05-14T08:49:29.163Z,7.70
2023-05-14T08:54:26.369Z,7.65
2023-05-14T08:56:53.985Z,8.30
2023-05-14T08:59:21.425Z,6.80
2023-05-14T09:01:51.738Z,6.60
2023-05-14T09:04:24.747Z,9.48
2023-05-14T09:06:53.940Z,8.60
2023-05-14T09:09:22.625Z,6.65
2023-05-14T09:11:51.756Z,6.53
2023-05-14T09:14:20.234Z,8.73
2023-05-14T09:16:49.868Z,11.38
2023-05-14T09:19:21.347Z,8.13
2023-05-14T09:21:50.117Z,8.63
2023-05-14T09:24:21.462Z,8.65
2023-05-14T09:26:53.914Z,8.02
2023-05-14T09:29:21.727Z,6.32
2023-05-14T09:31:53.685Z,8.77
2023-05-14T09:34:29.371Z,6.22
2023-05-14T09:37:00.629Z,8.23
2023-05-14T09:39:28.830Z,8.95
2023-05-14T09:41:57.919Z,6.78
2023-05-14T09:44:26.205Z,10.73
2023-05-14T09:46:54.290Z,7.85
2023-05-14T09:49:21.962Z,7.40
2023-05-14T09:51:50.062Z,10.43
2023-05-14T09:54:17.668Z,8.05
2023-05-14T09:56:45.263Z,9.25
2023-05-14T09:59:12.905Z,7.43
2023-05-14T10:01:43.741Z,8.38
2023-05-14T10:04:11.902Z,7.35
2023-05-14T10:06:40.397Z,7.50
2023-05-14T10:09:13.850Z,10.55
2023-05-14T10:11:47.038Z,8.85
2023-05-14T10:14:32.714Z,9.10
2023-05-14T10:17:01.860Z,7.82
2023-05-14T10:19:34.190Z,7.75
2023-05-14T10:24:33.960Z,7.32
2023-05-14T10:27:01.485Z,9.35
2023-05-14T10:29:37.437Z,6.60
2023-05-14T10:32:07.165Z,8.25
2023-05-14T10:34:38.511Z,10.40
2023-05-14T10:37:11.359Z,11.80
2023-05-14T10:39:59.085Z,9.48
2023-05-14T10:42:28.971Z,5.93
2023-05-14T10:45:10.827Z,7.30
2023-05-14T10:47:40.214Z,5.90
2023-05-14T10:50:10.678Z,6.30
2023-05-14T10:52:38.521Z,6.93
2023-05-14T10:55:07.778Z,6.10
2023-05-14T10:57:38.135Z,6.43
2023-05-14T11:00:08.799Z,7.80
2023-05-14T11:02:38.414Z,7.18
2023-05-14T11:05:11.672Z,8.65
2023-05-14T11:07:41.363Z,6.97
2023-05-14T11:10:09.648Z,5.55
2023-05-14T11:12:39.831Z,5.63
2023-05-14T11:15:09.842Z,4.93
2023-05-14T11:17:38.883Z,9.00
2023-05-14T11:20:07.291Z,5.35
2023-05-14T11:22:35.874Z,5.18
2023-05-14T11:25:03.677Z,5.45
2023-05-14T11:27:34.788Z,6.32
2023-05-14T11:30:02.555Z,4.78
2023-05-14T11:32:35.072Z,3.60
2023-05-14T11:35:02.812Z,5.00
2023-05-14T11:37:30.855Z,3.17
2023-05-14T11:40:00.661Z,2.53
2023-05-14T11:42:28.216Z,3.72
2023-05-14T11:44:55.601Z,5.03
2023-05-14T11:47:23.336Z,3.95
2023-05-14T11:49:50.906Z,2.83
2023-05-14T11:52:22.023Z,2.88
2023-05-14T11:54:50.814Z,3.38
2023-05-14T11:57:21.061Z,5.47
2023-05-14T11:59:55.730Z,3.38
2023-05-14T12:02:23.472Z,5.95
2023-05-14T12:04:54.274Z,3.85
2023-05-14T12:07:21.664Z,2.72
2023-05-14T12:09:49.955Z,1.77
2023-05-14T12:12:22.584Z,3.03
2023-05-14T12:14:51.061Z,3.85
2023-05-14T12:17:22.828Z,2.45
2023-05-14T12:19:52.162Z,4.25
2023-05-14T12:22:23.295Z,3.65
2023-05-14T12:24:58.572Z,2.40
2023-05-14T12:27:27.720Z,4.40
2023-05-14T12:32:41.053Z,3.97
2023-05-14T12:35:09.186Z,3.90
2023-05-14T12:37:39.264Z,4.72
2023-05-14T12:40:10.226Z,2.92
2023-05-14T12:42:37.758Z,5.22
2023-05-14T12:45:21.502Z,2.35
2023-05-14T12:47:49.217Z,5.35
2023-05-14T12:50:16.696Z,2.58
2023-05-14T12:52:44.284Z,2.80
2023-05-14T12:55:11.745Z,3.95
2023-05-14T12:57:39.578Z,5.25
2023-05-14T13:00:12.987Z,5.13
2023-05-14T13:02:43.383Z,3.53
2023-05-14T13:05:14.480Z,4.68
2023-05-14T13:07:42.364Z,6.47
2023-05-14T13:10:10.358Z,5.28
2023-05-14T13:12:38.702Z,2.72
2023-05-14T13:15:06.765Z,4.05
2023-05-14T13:17:34.233Z,4.63
2023-05-14T13:20:01.653Z,2.28
2023-05-14T13:22:29.568Z,2.90
2023-05-14T13:24:56.937Z,2.08
2023-05-14T13:27:24.364Z,2.45
2023-05-14T13:29:52.146Z,2.60
2023-05-14T13:32:19.546Z,2.90
2023-05-14T13:34:46.966Z,4.28
2023-05-14T13:37:14.443Z,3.80
2023-05-14T13:39:41.851Z,3.40
2023-05-14T13:42:09.374Z,1.65
2023-05-14T13:44:36.999Z,2.15
2023-05-14T13:47:04.855Z,2.13
2023-05-14T13:49:32.386Z,3.75
2023-05-14T13:51:59.938Z,2.55
2023-05-14T13:54:27.434Z,3.45
2023-05-14T13:56:54.910Z,2.33
2023-05-14T13:59:23.693Z,2.80
2023-05-14T14:01:51.765Z,4.60
2023-05-14T14:04:20.026Z,4.57
2023-05-14T14:06:47.540Z,2.20
2023-05-14T14:09:15.059Z,3.38
2023-05-14T14:11:42.570Z,3.13
2023-05-14T14:14:10.058Z,3.15
2023-05-14T14:16:37.523Z,5.53
2023-05-14T14:19:05.287Z,2.63
2023-05-14T14:21:33.313Z,3.22
2023-05-14T14:24:01.303Z,3.03
2023-05-14T14:26:29.295Z,2.85
2023-05-14T14:28:58.690Z,3.53
2023-05-14T14:31:26.221Z,4.88
2023-05-14T14:33:53.643Z,2.55
2023-05-14T14:36:21.087Z,3.25
2023-05-14T14:38:48.531Z,4.00
2023-05-14T14:41:16.462Z,2.60
2023-05-14T14:43:44.460Z,3.05
2023-05-14T14:46:11.921Z,3.67
2023-05-14T14:48:39.876Z,3.80
2023-05-14T14:51:08.552Z,6.20
2023-05-14T14:53:37.044Z,3.17
2023-05-14T14:56:04.902Z,3.33
2023-05-14T14:58:32.752Z,3.17
2023-05-14T15:01:01.470Z,4.25
2023-05-14T15:03:29.296Z,3.35
2023-05-14T15:05:56.936Z,3.30
2023-05-14T15:08:28.014Z,3.42
2023-05-14T15:10:56.584Z,5.78
2023-05-14T15:13:24.757Z,3.13
2023-05-14T15:15:55.093Z,4.30
2023-05-14T15:18:22.595Z,4.53
2023-05-14T15:20:50.043Z,4.20
2023-05-14T15:23:17.694Z,5.28
2023-05-14T15:25:45.408Z,5.60
2023-05-14T15:28:12.851Z,5.43
2023-05-14T15:30:40.551Z,4.63
2023-05-14T15:33:08.811Z,4.38
2023-05-14T15:35:36.709Z,4.75
2023-05-14T15:38:04.138Z,4.32
2023-05-14T15:40:33.185Z,5.28
2023-05-14T15:43:00.948Z,6.90
2023-05-14T15:45:28.473Z,5.93
2023-05-14T15:47:55.941Z,5.68
2023-05-14T15:50:23.703Z,4.68
2023-05-14T15:52:51.356Z,5.95
2023-05-14T15:55:18.996Z,4.32
2023-05-14T15:57:46.465Z,5.85
2023-05-14T16:00:14.529Z,3.78
2023-05-14T16:02:42.316Z,4.38
2023-05-14T16:05:10.160Z,4.35
2023-05-14T16:07:38.314Z,3.92
2023-05-14T16:10:06.673Z,4.03
2023-05-14T16:12:34.368Z,3.22
2023-05-14T16:15:01.849Z,4.45
2023-05-14T16:17:31.085Z,6.15
2023-05-14T16:20:00.845Z,4.55
2023-05-14T16:22:29.430Z,3.50
2023-05-14T16:24:56.813Z,6.38
2023-05-14T16:27:24.499Z,7.32
2023-05-14T16:29:51.928Z,5.57
2023-05-14T16:32:20.059Z,4.70
2023-05-14T16:34:49.821Z,7.20
2023-05-14T16:37:19.923Z,5.10
2023-05-14T16:39:47.431Z,5.47
2023-05-14T16:42:15.077Z,6.72
2023-05-14T16:44:42.514Z,6.00
2023-05-14T16:47:10.455Z,10.52
2023-05-14T16:49:37.840Z,5.22
2023-05-14T16:52:05.755Z,6.72
2023-05-14T16:54:33.240Z,6.03
2023-05-14T16:57:00.708Z,4.90
2023-05-14T16:59:28.167Z,10.23
2023-05-14T17:01:56.086Z,9.85
2023-05-14T17:04:26.524Z,8.88
2023-05-14T17:06:54.186Z,6.75
2023-05-14T17:09:21.703Z,5.53
2023-05-14T17:11:49.153Z,7.47
2023-05-14T17:14:16.614Z,9.18
2023-05-14T17:16:44.039Z,9.00
2023-05-14T17:19:11.495Z,8.75
2023-05-14T17:21:38.955Z,8.68
2023-05-14T17:24:06.523Z,7.13
2023-05-14T17:26:34.071Z,7.82
2023-05-14T17:29:02.236Z,8.18
2023-05-14T17:31:29.663Z,7.75
2023-05-14T17:33:57.105Z,10.93
2023-05-14T17:36:25.011Z,7.95
2023-05-14T17:38:52.594Z,7.70
2023-05-14T17:41:20.164Z,8.57
2023-05-14T17:43:47.625Z,7.57
2023-05-14T17:46:15.131Z,6.82
2023-05-14T17:48:42.574Z,6.68
2023-05-14T17:51:10.016Z,9.90
2023-05-14T17:53:37.517Z,7.88
2023-05-14T17:56:05.691Z,8.55
2023-05-14T17:58:33.302Z,4.93
2023-05-14T18:01:00.861Z,6.80
2023-05-14T18:03:28.494Z,7.35
2023-05-14T18:05:56.212Z,7.53
2023-05-14T18:08:23.606Z,6.60
2023-05-14T18:10:50.963Z,6.90
2023-05-14T18:13:18.348Z,6.28
2023-05-14T18:15:45.859Z,5.18
2023-05-14T18:18:13.506Z,5.45
2023-05-14T18:20:40.912Z,4.63
2023-05-14T18:23:08.399Z,7.43
2023-05-14T18:25:35.944Z,11.50
2023-05-14T18:28:03.515Z,9.48
2023-05-14T18:30:31.035Z,6.85
2023-05-14T18:32:59.744Z,5.97
2023-05-14T18:35:27.893Z,7.55
2023-05-14T18:37:55.598Z,6.10
2023-05-14T18:40:22.986Z,9.25
2023-05-14T18:42:50.485Z,7.25
2023-05-14T18:45:17.937Z,6.25
2023-05-14T18:47:45.467Z,5.68
2023-05-14T18:50:12.904Z,5.50
2023-05-14T18:52:40.335Z,5.97
2023-05-14T18:55:08.254Z,10.30
2023-05-14T18:57:36.990Z,5.53
2023-05-14T19:00:05.230Z,6.30
2023-05-14T19:02:32.811Z,6.38
2023-05-14T19:05:00.289Z,6.60
2023-05-14T19:07:27.859Z,7.13
2023-05-14T19:09:55.447Z,6.30
2023-05-14T19:12:22.820Z,6.32
2023-05-14T19:14:50.256Z,4.97
2023-05-14T19:17:19.215Z,6.07
2023-05-14T19:19:47.967Z,8.63
2023-05-14T19:22:15.410Z,7.93
2023-05-14T19:24:42.907Z,6.97
2023-05-14T19:27:10.422Z,7.63
2023-05-14T19:29:37.857Z,5.60
2023-05-14T19:32:05.938Z,7.10
2023-05-14T19:34:33.431Z,7.32
2023-05-14T19:37:01.123Z,8.15
2023-05-14T19:39:28.677Z,5.97
2023-05-14T19:41:56.090Z,6.72
2023-05-14T19:44:23.576Z,8.50
2023-05-14T19:46:51.370Z,7.07
2023-05-14T19:49:18.831Z,7.20
2023-05-14T19:51:46.165Z,9.88
2023-05-14T19:54:13.696Z,10.48
2023-05-14T19:56:41.226Z,9.02
2023-05-14T19:59:08.644Z,7.72
2023-05-14T20:01:36.210Z,8.43
2023-05-14T20:04:03.911Z,6.90
2023-05-14T20:06:32.086Z,8.38
2023-05-14T20:09:00.274Z,9.88
2023-05-14T20:11:27.890Z,11.00
2023-05-14T20:13:55.322Z,10.73
2023-05-14T20:16:23.501Z,14.35
2023-05-14T20:18:53.402Z,9.15
2023-05-14T20:21:20.867Z,8.75
2023-05-14T20:23:48.331Z,10.07
2023-05-14T20:26:16.229Z,10.05
2023-05-14T20:28:43.706Z,8.10
2023-05-14T20:31:11.204Z,11.27
2023-05-14T20:33:38.666Z,11.50
2023-05-14T20:36:06.617Z,10.45
2023-05-14T20:38:35.031Z,8.52
2023-05-14T20:41:02.939Z,9.40
2023-05-14T20:43:30.379Z,11.65
2023-05-14T20:46:01.176Z,13.32
2023-05-14T20:48:28.780Z,11.10
2023-05-14T20:50:56.133Z,9.88
2023-05-14T20:53:25.331Z,9.48
2023-05-14T20:55:52.841Z,10.52
2023-05-14T20:58:20.941Z,10.77
2023-05-14T21:00:48.397Z,11.68
2023-05-14T21:03:15.953Z,11.30
2023-05-14T21:05:43.816Z,10.93
2023-05-14T21:08:11.432Z,10.95
2023-05-14T21:10:38.856Z,9.95
2023-05-14T21:13:07.166Z,9.93
2023-05-14T21:15:34.648Z,12.35
2023-05-14T21:18:03.122Z,12.93
2023-05-14T21:20:30.572Z,10.85
2023-05-14T21:22:57.888Z,10.23
2023-05-14T21:25:25.777Z,15.63
2023-05-14T21:27:53.686Z,10.18
2023-05-14T21:30:21.679Z,14.45
2023-05-14T21:32:49.153Z,14.02
2023-05-14T21:35:16.758Z,10.77
2023-05-14T21:37:44.292Z,12.40
2023-05-14T21:40:12.546Z,13.13
2023-05-14T21:42:40.736Z,12.02
2023-05-14T21:45:08.633Z,10.30
2023-05-14T21:47:37.077Z,11.40
2023-05-14T21:50:05.761Z,10.98
2023-05-14T21:52:33.575Z,13.43
2023-05-14T21:55:01.078Z,12.88
2023-05-14T21:57:30.015Z,14.00
2023-05-14T21:59:59.420Z,13.25
2023-05-14T22:02:26.839Z,13.63
2023-05-14T22:04:54.296Z,15.02
2023-05-14T22:07:21.782Z,14.63
2023-05-14T22:09:50.147Z,14.77
2023-05-14T22:12:17.796Z,15.60
2023-05-14T22:14:45.945Z,17.40
2023-05-14T22:17:13.448Z,17.80
2023-05-14T22:19:41.012Z,17.80
2023-05-14T22:22:08.680Z,15.93
2023-05-14T22:24:36.181Z,17.15
2023-05-14T22:27:03.787Z,20.70
2023-05-14T22:29:31.655Z,20.48
2023-05-14T22:31:59.131Z,17.67
2023-05-14T22:34:26.609Z,18.42
2023-05-14T22:36:54.035Z,14.80
2023-05-14T22:39:21.660Z,17.63
2023-05-14T22:41:54.860Z,15.98
2023-05-14T22:44:26.049Z,17.27
2023-05-14T22:49:22.206Z,19.15
2023-05-14T22:51:54.220Z,16.50
2023-05-14T22:54:21.609Z,17.08
2023-05-14T22:56:49.237Z,18.35
2023-05-14T22:59:16.733Z,19.10
2023-05-14T23:01:44.233Z,15.68
2023-05-14T23:04:11.694Z,18.80
2023-05-14T23:06:39.226Z,17.13
2023-05-14T23:09:06.643Z,16.10
2023-05-14T23:11:34.106Z,16.98
2023-05-14T23:14:01.555Z,16.98
2023-05-14T23:16:29.027Z,19.48
2023-05-14T23:18:56.568Z,19.00
2023-05-14T23:21:24.124Z,18.50
2023-05-14T23:23:51.852Z,18.27
2023-05-14T23:26:19.358Z,18.67
2023-05-14T23:28:47.473Z,20.10
2023-05-14T23:31:14.974Z,20.63
2023-05-14T23:33:44.603Z,22.80
2023-05-14T23:36:12.216Z,24.27
2023-05-14T23:38:40.727Z,23.98
2023-05-14T23:41:08.306Z,26.98
2023-05-14T23:43:36.078Z,25.90
2023-05-14T23:46:04.066Z,24.77
2023-05-14T23:48:31.602Z,26.45
2023-05-14T23:50:59.095Z,25.83
2023-05-14T23:53:26.590Z,22.55
2023-05-14T23:55:54.189Z,24.15
2023-05-14T23:58:21.653Z,22.17
